Time;durP1;ratioP1;P1;durP2;ratioP2;P2;SDS_P1;SDS_P2;PMS_P1;PMS_P2;Temp;Humidity;BMP_temperature;BMP_pressure;BME280_temperature;BME280_humidity;BME280_pressure;Samples;Min_cycle;Max_cycle;Signal;HPM_P1;HPM_P2
2022/01/20 00:01:38;;;;;;;;;;;3.20;99.90;;;;;;4974718;28;19929;-76
2022/01/20 00:03:30;;;;;;;;;;;3.20;99.90;;;;;;4970083;28;19922;-76
2022/01/20 00:27:53;;;;;;;;;;;3.50;99.90;;;;;;4975029;28;19978;-76
2022/01/20 00:38:22;;;;;;;;;;;3.40;99.90;;;;;;4940218;28;20426;-75
2022/01/20 00:40:49;;;;;;;;;;;3.40;99.90;;;;;;4959679;28;19922;-76
2022/01/20 00:43:16;;;;;;;;;;;3.40;99.90;;;;;;4955423;28;20209;-76
2022/01/20 00:45:43;;;;;;;;;;;3.40;99.90;;;;;;4957724;28;19928;-76
2022/01/20 00:48:09;;;;;;;;;;;3.40;99.90;;;;;;4957457;28;19973;-75
2022/01/20 00:50:38;;;;;;;;;;;3.40;99.90;;;;;;4955019;28;19935;-75
2022/01/20 00:53:04;;;;;;;;;;;3.50;99.90;;;;;;4938667;29;20428;-75
2022/01/20 00:55:31;;;;;;;;;;;3.40;99.90;;;;;;4954197;28;19957;-76
2022/01/20 00:57:58;;;;;;;;;;;3.40;99.90;;;;;;4961389;28;19964;-75
2022/01/20 01:00:25;;;;;;;;;;;3.40;99.90;;;;;;4957946;28;20493;-76
2022/01/20 01:02:52;;;;;;;;;;;3.40;99.90;;;;;;4952181;28;19929;-75
2022/01/20 01:05:19;;;;;;;;;;;3.40;99.90;;;;;;4960710;28;20428;-75
2022/01/20 01:10:14;;;;;;;;;;;3.50;99.90;;;;;;4979362;28;19969;-75
2022/01/20 01:13:07;;;;;;;;;;;3.50;99.90;;;;;;4973838;28;20417;-75
2022/01/20 01:15:33;;;;;;;;;;;3.40;99.90;;;;;;4973113;28;19921;-75
2022/01/20 01:23:45;;;;;;;;;;;3.10;99.90;;;;;;4962863;28;19936;-75
2022/01/20 01:26:14;;;;;;;;;;;3.10;99.90;;;;;;4978329;28;19928;-75
2022/01/20 01:28:41;;;;;;;;;;;3.10;99.90;;;;;;4984515;28;20221;-76
2022/01/20 01:33:41;;;;;;;;;;;3.20;99.90;;;;;;4975435;28;19921;-77
2022/01/20 01:36:12;;;;;;;;;;;3.10;99.90;;;;;;4985041;28;19994;-77
2022/01/20 01:38:39;;;;;;;;;;;3.00;99.90;;;;;;4978342;28;20005;-76
2022/01/20 01:41:09;;;;;;;;;;;3.00;99.90;;;;;;4979190;28;19921;-77
2022/01/20 01:43:37;;;;;;;;;;;3.00;99.90;;;;;;4978109;28;19926;-76
2022/01/20 01:46:04;;;;;;;;;;;2.90;99.90;;;;;;4978588;28;19922;-77
2022/01/20 01:48:31;;;;;;;;;;;2.80;99.90;;;;;;4973597;28;19971;-77
2022/01/20 01:51:00;;;;;;;;;;;2.70;99.90;;;;;;4969757;28;19926;-77
2022/01/20 01:53:27;;;;;;;;;;;2.60;99.90;;;;;;4982235;28;19997;-77
2022/01/20 01:55:54;;;;;;;;;;;2.50;99.90;;;;;;4971367;28;19929;-77
2022/01/20 01:58:21;;;;;;;;;;;2.30;99.90;;;;;;4980246;28;20013;-77
2022/01/20 02:00:48;;;;;;;;;;;2.20;99.90;;;;;;4978456;28;19932;-77
2022/01/20 02:03:15;;;;;;;;;;;2.00;99.90;;;;;;4987195;28;20330;-77
2022/01/20 02:05:59;;;;;;;;;;;1.90;99.90;;;;;;4979478;28;19937;-77
2022/01/20 02:08:36;;;;;;;;;;;1.90;99.90;;;;;;4976794;28;19922;-77
2022/01/20 02:19:20;;;;;;;;;;;2.30;99.90;;;;;;4983542;28;19928;-77
2022/01/20 02:21:51;;;;;;;;;;;2.30;99.90;;;;;;4983570;28;19922;-77
2022/01/20 02:24:19;;;;;;;;;;;2.40;99.90;;;;;;4979170;28;20281;-77
2022/01/20 02:26:46;;;;;;;;;;;2.40;99.90;;;;;;4975768;28;20258;-77
2022/01/20 02:29:13;;;;;;;;;;;2.40;99.90;;;;;;4985467;28;19921;-77
2022/01/20 02:31:39;;;;;;;;;;;2.40;99.90;;;;;;4985795;28;19928;-77
2022/01/20 02:34:14;;;;;;;;;;;2.40;99.90;;;;;;4986524;28;20412;-76
2022/01/20 02:36:43;;;;;;;;;;;2.40;99.90;;;;;;4984414;28;20451;-77
2022/01/20 02:39:59;;;;;;;;;;;2.40;99.90;;;;;;4979302;28;19969;-77
2022/01/20 02:44:53;;;;;;;;;;;2.30;99.90;;;;;;4977127;28;19922;-76
2022/01/20 02:47:29;;;;;;;;;;;2.30;99.90;;;;;;4974941;28;19922;-77
2022/01/20 02:49:56;;;;;;;;;;;2.20;99.90;;;;;;4980687;28;19944;-77
2022/01/20 02:52:23;;;;;;;;;;;2.20;99.90;;;;;;4974472;28;20281;-77
2022/01/20 02:54:50;;;;;;;;;;;2.20;99.90;;;;;;4988068;28;19929;-77
2022/01/20 02:57:18;;;;;;;;;;;2.20;99.90;;;;;;4977464;28;20377;-77
2022/01/20 02:59:45;;;;;;;;;;;2.30;99.90;;;;;;4985102;28;19922;-77
2022/01/20 03:02:11;;;;;;;;;;;2.30;99.90;;;;;;4983119;28;19931;-77
2022/01/20 03:04:39;;;;;;;;;;;2.40;99.90;;;;;;4976354;28;19922;-77
2022/01/20 03:07:10;;;;;;;;;;;2.40;99.90;;;;;;4986191;28;19928;-77
2022/01/20 03:09:36;;;;;;;;;;;2.30;99.90;;;;;;4976410;28;20300;-77
2022/01/20 03:12:03;;;;;;;;;;;2.30;99.90;;;;;;4979053;28;19922;-77
2022/01/20 03:14:30;;;;;;;;;;;2.30;99.90;;;;;;4988004;28;19925;-77
2022/01/20 03:16:57;;;;;;;;;;;2.20;99.90;;;;;;4993722;28;20022;-77
2022/01/20 03:19:24;;;;;;;;;;;2.20;99.90;;;;;;4991627;28;19964;-77
2022/01/20 03:21:51;;;;;;;;;;;2.30;99.90;;;;;;4971958;28;19930;-77
2022/01/20 03:24:18;;;;;;;;;;;2.30;99.90;;;;;;4984836;28;19928;-77
2022/01/20 03:26:45;;;;;;;;;;;2.30;99.90;;;;;;4979134;28;19975;-77
2022/01/20 03:29:12;;;;;;;;;;;2.30;99.90;;;;;;4988019;28;19928;-77
2022/01/20 03:31:40;;;;;;;;;;;2.30;99.90;;;;;;4990409;28;20008;-77
2022/01/20 03:34:07;;;;;;;;;;;2.30;99.90;;;;;;4983079;28;19922;-77
2022/01/20 03:36:34;;;;;;;;;;;2.30;99.90;;;;;;4982778;28;19922;-77
2022/01/20 03:39:01;;;;;;;;;;;2.30;99.90;;;;;;4990788;28;19922;-77
2022/01/20 03:41:28;;;;;;;;;;;2.30;99.90;;;;;;4984033;28;20323;-77
2022/01/20 03:43:54;;;;;;;;;;;2.30;99.90;;;;;;4984289;28;20178;-77
2022/01/20 03:46:22;;;;;;;;;;;2.20;99.90;;;;;;4975995;28;20338;-77
2022/01/20 03:48:51;;;;;;;;;;;2.10;99.90;;;;;;4980826;28;20037;-77
2022/01/20 03:51:23;;;;;;;;;;;2.00;99.90;;;;;;4973519;28;20332;-77
2022/01/20 03:53:51;;;;;;;;;;;1.90;99.90;;;;;;4986755;28;20368;-77
2022/01/20 03:56:18;;;;;;;;;;;1.80;99.90;;;;;;4983028;28;25119;-77
2022/01/20 03:58:46;;;;;;;;;;;1.80;99.90;;;;;;4983999;28;19972;-77
2022/01/20 04:01:14;;;;;;;;;;;1.70;99.90;;;;;;4969509;28;20009;-77
2022/01/20 04:03:41;;;;;;;;;;;1.50;99.90;;;;;;4973162;28;20443;-77
2022/01/20 04:06:08;;;;;;;;;;;1.50;99.90;;;;;;4980308;28;19922;-76
2022/01/20 04:08:40;;;;;;;;;;;1.40;99.90;;;;;;4985003;28;19928;-75
2022/01/20 04:11:08;;;;;;;;;;;1.30;99.90;;;;;;4982914;28;20336;-75
2022/01/20 04:13:35;;;;;;;;;;;1.30;99.90;;;;;;4977169;28;20024;-75
2022/01/20 04:16:13;;;;;;;;;;;1.10;99.90;;;;;;4976743;28;20427;-76
2022/01/20 04:18:41;;;;;;;;;;;1.00;99.90;;;;;;4983300;28;20285;-76
2022/01/20 04:21:08;;;;;;;;;;;0.80;99.90;;;;;;4983659;28;20004;-76
2022/01/20 04:23:35;;;;;;;;;;;0.70;99.90;;;;;;4981554;28;20376;-77
2022/01/20 04:26:02;;;;;;;;;;;0.60;99.90;;;;;;4976097;28;19926;-76
2022/01/20 04:28:28;;;;;;;;;;;0.50;99.90;;;;;;4981784;28;19930;-76
2022/01/20 04:30:55;;;;;;;;;;;0.40;99.90;;;;;;4985024;28;19925;-75
2022/01/20 04:33:22;;;;;;;;;;;0.30;99.90;;;;;;5028749;28;20022;-75
2022/01/20 04:35:49;;;;;;;;;;;0.30;99.90;;;;;;5017074;28;19929;-75
2022/01/20 04:38:15;;;;;;;;;;;0.30;99.90;;;;;;5027295;28;19929;-75
2022/01/20 04:40:43;;;;;;;;;;;0.40;99.90;;;;;;5069006;28;20014;-76
2022/01/20 04:43:10;;;;;;;;;;;0.50;99.90;;;;;;5011351;28;19922;-76
2022/01/20 04:45:44;;;;;;;;;;;0.40;99.90;;;;;;5018734;28;20004;-76
2022/01/20 04:59:04;;;;;;;;;;;0.70;99.90;;;;;;4989478;28;20331;-76
2022/01/20 05:01:31;;;;;;;;;;;0.80;99.90;;;;;;4972631;28;19922;-76
2022/01/20 05:04:01;;;;;;;;;;;0.80;99.90;;;;;;4970302;28;19922;-76
2022/01/20 05:06:28;;;;;;;;;;;0.90;99.90;;;;;;4980160;28;19965;-76
2022/01/20 05:08:55;;;;;;;;;;;0.90;99.90;;;;;;4958612;28;19928;-76
2022/01/20 05:11:21;;;;;;;;;;;0.90;99.90;;;;;;5018824;28;19920;-76
2022/01/20 05:13:48;;;;;;;;;;;0.90;99.90;;;;;;4978210;28;20369;-75
2022/01/20 05:16:14;;;;;;;;;;;0.90;99.90;;;;;;4984826;28;19922;-75
2022/01/20 05:18:41;;;;;;;;;;;1.00;99.90;;;;;;4974966;28;19922;-75
2022/01/20 05:21:08;;;;;;;;;;;1.00;99.90;;;;;;4978771;28;19922;-77
2022/01/20 05:23:35;;;;;;;;;;;1.10;99.90;;;;;;4983269;28;19926;-76
2022/01/20 05:26:01;;;;;;;;;;;1.10;99.90;;;;;;4982045;28;19929;-76
2022/01/20 05:28:28;;;;;;;;;;;1.00;99.90;;;;;;4969440;28;19922;-76
2022/01/20 05:30:55;;;;;;;;;;;0.90;99.90;;;;;;4971816;28;19932;-77
2022/01/20 05:33:22;;;;;;;;;;;0.90;99.90;;;;;;4980664;28;19967;-76
2022/01/20 05:35:48;;;;;;;;;;;0.90;99.90;;;;;;4974310;28;19925;-76
2022/01/20 05:38:15;;;;;;;;;;;0.80;99.90;;;;;;4978879;28;19922;-76
2022/01/20 05:40:42;;;;;;;;;;;0.80;99.90;;;;;;4970536;28;20164;-76
2022/01/20 05:43:09;;;;;;;;;;;0.70;99.90;;;;;;4979910;28;20016;-77
2022/01/20 05:45:35;;;;;;;;;;;0.80;99.90;;;;;;4974829;28;19926;-77
2022/01/20 05:48:15;;;;;;;;;;;0.90;99.90;;;;;;4974739;28;19929;-76
2022/01/20 05:50:42;;;;;;;;;;;1.00;99.90;;;;;;4950085;28;19926;-77
2022/01/20 05:53:09;;;;;;;;;;;1.10;99.90;;;;;;4982232;28;19922;-77
2022/01/20 05:55:41;;;;;;;;;;;1.20;99.90;;;;;;4981629;28;20368;-77
2022/01/20 05:58:08;;;;;;;;;;;1.40;99.90;;;;;;4967948;28;19936;-77
2022/01/20 06:00:35;;;;;;;;;;;1.40;99.90;;;;;;4966121;28;20012;-75
2022/01/20 06:05:49;;;;;;;;;;;1.40;99.90;;;;;;4970987;28;20030;-75
2022/01/20 06:08:15;;;;;;;;;;;1.50;99.90;;;;;;4972063;28;19922;-75
2022/01/20 06:10:42;;;;;;;;;;;1.40;99.90;;;;;;4973574;28;20568;-75
2022/01/20 06:13:09;;;;;;;;;;;1.30;99.90;;;;;;4972392;28;19936;-75
2022/01/20 06:15:35;;;;;;;;;;;1.10;99.90;;;;;;4975853;28;19940;-75
2022/01/20 06:18:02;;;;;;;;;;;1.00;99.90;;;;;;4967113;28;19925;-75
2022/01/20 06:20:29;;;;;;;;;;;0.80;99.90;;;;;;4982590;28;19925;-75
2022/01/20 06:22:56;;;;;;;;;;;0.60;99.90;;;;;;4979125;28;19926;-75
2022/01/20 06:25:23;;;;;;;;;;;0.50;99.90;;;;;;4978310;28;19949;-74
2022/01/20 06:27:49;;;;;;;;;;;0.40;99.90;;;;;;4975296;28;19929;-75
2022/01/20 06:30:16;;;;;;;;;;;0.40;99.90;;;;;;5012822;28;19963;-75
2022/01/20 06:32:43;;;;;;;;;;;0.60;99.90;;;;;;4979237;28;19937;-76
2022/01/20 06:35:10;;;;;;;;;;;0.80;99.90;;;;;;4967514;28;19925;-75
2022/01/20 06:37:36;;;;;;;;;;;1.00;99.90;;;;;;4986156;28;19926;-75
2022/01/20 06:40:04;;;;;;;;;;;1.20;99.90;;;;;;4978155;28;19926;-74
2022/01/20 06:42:30;;;;;;;;;;;1.30;99.90;;;;;;4965270;28;19940;-75
2022/01/20 06:44:57;;;;;;;;;;;1.40;99.90;;;;;;4964750;28;19925;-75
2022/01/20 06:47:29;;;;;;;;;;;1.50;99.90;;;;;;4971739;28;20626;-76
2022/01/20 06:49:56;;;;;;;;;;;1.60;99.90;;;;;;4969029;28;19925;-76
2022/01/20 06:52:26;;;;;;;;;;;1.60;99.90;;;;;;4965637;28;19922;-75
2022/01/20 06:54:52;;;;;;;;;;;1.70;99.90;;;;;;4967525;28;19925;-76
2022/01/20 06:57:26;;;;;;;;;;;1.70;99.90;;;;;;4982209;28;20151;-75
2022/01/20 06:59:52;;;;;;;;;;;1.60;99.90;;;;;;4965567;28;20297;-76
2022/01/20 07:02:19;;;;;;;;;;;1.50;99.90;;;;;;4970512;28;19932;-76
2022/01/20 07:04:47;;;;;;;;;;;1.40;99.90;;;;;;4970557;28;20009;-76
2022/01/20 07:07:14;;;;;;;;;;;1.40;99.90;;;;;;4965966;28;20320;-76
2022/01/20 07:09:41;;;;;;;;;;;1.30;99.90;;;;;;4973120;28;19932;-76
2022/01/20 07:12:08;;;;;;;;;;;1.40;99.90;;;;;;4966842;28;19925;-76
2022/01/20 07:14:34;;;;;;;;;;;1.50;99.90;;;;;;5011336;28;19930;-76
2022/01/20 07:17:02;;;;;;;;;;;1.60;99.90;;;;;;4973623;28;19933;-76
2022/01/20 07:19:29;;;;;;;;;;;1.60;99.90;;;;;;4983118;28;19922;-76
2022/01/20 07:21:55;;;;;;;;;;;1.50;99.90;;;;;;4973588;28;19929;-75
2022/01/20 07:24:22;;;;;;;;;;;1.40;99.90;;;;;;4987404;28;20379;-75
2022/01/20 07:26:48;;;;;;;;;;;1.40;99.90;;;;;;4974962;28;19936;-75
2022/01/20 07:29:15;;;;;;;;;;;1.40;99.90;;;;;;4976229;28;20304;-76
2022/01/20 07:31:42;;;;;;;;;;;1.40;99.90;;;;;;4988474;28;20149;-77
2022/01/20 07:34:09;;;;;;;;;;;1.60;99.90;;;;;;4971017;28;19925;-76
2022/01/20 07:36:36;;;;;;;;;;;1.70;99.90;;;;;;4980105;28;19926;-75
2022/01/20 07:39:03;;;;;;;;;;;1.80;99.90;;;;;;4975243;28;19969;-76
2022/01/20 07:41:29;;;;;;;;;;;1.90;99.90;;;;;;4950360;28;20296;-75
2022/01/20 07:43:57;;;;;;;;;;;2.00;99.90;;;;;;4978250;28;19929;-76
2022/01/20 07:46:24;;;;;;;;;;;2.00;99.90;;;;;;4976204;28;20300;-75
2022/01/20 07:48:51;;;;;;;;;;;1.90;99.90;;;;;;4962975;28;19996;-75
2022/01/20 07:51:18;;;;;;;;;;;1.90;99.90;;;;;;4958103;28;19931;-75
2022/01/20 07:53:45;;;;;;;;;;;1.90;99.90;;;;;;4963731;28;20403;-76
2022/01/20 07:56:12;;;;;;;;;;;1.90;99.90;;;;;;4977363;28;19943;-75
2022/01/20 07:58:39;;;;;;;;;;;1.90;99.90;;;;;;4989043;28;20292;-76
2022/01/20 08:01:06;;;;;;;;;;;1.90;99.90;;;;;;4978083;28;19926;-78
2022/01/20 08:03:33;;;;;;;;;;;2.00;99.90;;;;;;4980926;28;19928;-78
2022/01/20 08:06:00;;;;;;;;;;;2.00;99.90;;;;;;4979296;28;19922;-78
2022/01/20 08:08:26;;;;;;;;;;;2.10;99.90;;;;;;4983049;28;19921;-78
2022/01/20 08:10:53;;;;;;;;;;;2.00;99.90;;;;;;4984328;28;19941;-75
2022/01/20 08:13:19;;;;;;;;;;;1.90;99.90;;;;;;4978501;28;20008;-75
2022/01/20 08:15:46;;;;;;;;;;;1.90;99.90;;;;;;4985011;28;19951;-75
2022/01/20 08:18:13;;;;;;;;;;;2.00;99.90;;;;;;4979283;28;19926;-76
2022/01/20 08:20:40;;;;;;;;;;;2.10;99.90;;;;;;4975639;28;20142;-75
2022/01/20 08:23:07;;;;;;;;;;;2.20;99.90;;;;;;4946770;28;20291;-75
2022/01/20 08:25:34;;;;;;;;;;;2.20;99.90;;;;;;4972499;28;19921;-76
2022/01/20 08:28:01;;;;;;;;;;;2.40;99.90;;;;;;4970976;28;19922;-76
2022/01/20 08:30:28;;;;;;;;;;;2.70;99.90;;;;;;4973668;28;20357;-78
2022/01/20 08:32:55;;;;;;;;;;;3.00;99.90;;;;;;4974137;28;20341;-78
2022/01/20 08:35:24;;;;;;;;;;;3.40;99.90;;;;;;4977019;28;21435;-79
2022/01/20 08:37:51;;;;;;;;;;;3.60;99.90;;;;;;4972273;28;19929;-78
2022/01/20 08:40:22;;;;;;;;;;;3.90;99.90;;;;;;4976917;28;19926;-78
2022/01/20 08:42:50;;;;;;;;;;;4.00;99.90;;;;;;4975543;28;19930;-79
2022/01/20 08:45:18;;;;;;;;;;;4.30;99.90;;;;;;4979112;28;20299;-78
2022/01/20 08:47:45;;;;;;;;;;;4.50;99.90;;;;;;4977906;28;20137;-78
2022/01/20 08:50:13;;;;;;;;;;;4.50;99.90;;;;;;4979313;28;19922;-78
2022/01/20 08:52:44;;;;;;;;;;;4.50;99.90;;;;;;4975092;28;20145;-78
2022/01/20 08:55:10;;;;;;;;;;;4.30;99.90;;;;;;4960425;28;19922;-78
2022/01/20 08:57:37;;;;;;;;;;;4.30;99.90;;;;;;4963079;28;19926;-75
2022/01/20 09:00:05;;;;;;;;;;;4.20;99.90;;;;;;4972526;28;19936;-76
2022/01/20 09:02:31;;;;;;;;;;;4.00;99.90;;;;;;4972710;28;19922;-75
2022/01/20 09:04:59;;;;;;;;;;;3.80;99.90;;;;;;4977332;28;19922;-75
2022/01/20 09:07:26;;;;;;;;;;;3.70;99.90;;;;;;4979540;28;20012;-76
2022/01/20 09:09:55;;;;;;;;;;;3.60;99.90;;;;;;4980268;28;19928;-76
2022/01/20 09:17:48;;;;;;;;;;;3.80;99.90;;;;;;4957939;28;19932;-76
2022/01/20 09:20:14;;;;;;;;;;;4.10;99.90;;;;;;4978971;28;19922;-76
2022/01/20 09:22:41;;;;;;;;;;;4.30;99.90;;;;;;4986339;28;19976;-77
2022/01/20 09:25:08;;;;;;;;;;;4.60;99.90;;;;;;4966032;28;19937;-77
2022/01/20 09:27:35;;;;;;;;;;;5.00;99.90;;;;;;4972981;28;20371;-78
2022/01/20 09:30:04;;;;;;;;;;;5.10;99.90;;;;;;5007037;28;19931;-77
2022/01/20 09:32:33;;;;;;;;;;;4.90;99.90;;;;;;4968209;28;19973;-77
2022/01/20 09:35:00;;;;;;;;;;;4.50;99.90;;;;;;4976509;28;20322;-77
2022/01/20 09:37:27;;;;;;;;;;;4.30;99.90;;;;;;4964789;28;20691;-77
2022/01/20 09:39:54;;;;;;;;;;;4.30;99.90;;;;;;4964151;28;19965;-77
2022/01/20 09:42:20;;;;;;;;;;;4.10;99.90;;;;;;4976156;28;19930;-77
2022/01/20 09:44:47;;;;;;;;;;;4.00;99.90;;;;;;4976110;28;19933;-77
2022/01/20 09:47:17;;;;;;;;;;;3.90;99.90;;;;;;4971948;28;19932;-77
2022/01/20 09:49:44;;;;;;;;;;;3.80;99.90;;;;;;4971084;28;19922;-77
2022/01/20 09:52:13;;;;;;;;;;;4.00;99.90;;;;;;4968572;28;20235;-78
2022/01/20 09:54:39;;;;;;;;;;;4.30;99.90;;;;;;4964769;28;19933;-77
2022/01/20 09:57:06;;;;;;;;;;;4.60;99.90;;;;;;4973833;28;19929;-77
2022/01/20 09:59:33;;;;;;;;;;;4.60;99.90;;;;;;4970267;28;19937;-77
2022/01/20 10:02:00;;;;;;;;;;;5.10;99.90;;;;;;4978048;28;19922;-78
2022/01/20 10:04:29;;;;;;;;;;;5.70;99.90;;;;;;4981784;28;20025;-78
2022/01/20 10:06:57;;;;;;;;;;;6.20;99.90;;;;;;4979426;28;19926;-77
2022/01/20 10:09:35;;;;;;;;;;;6.70;99.90;;;;;;4980099;28;20400;-75
2022/01/20 10:12:03;;;;;;;;;;;7.40;99.90;;;;;;4977507;28;19922;-75
2022/01/20 10:14:43;;;;;;;;;;;8.00;99.90;;;;;;4974186;28;19922;-75
2022/01/20 10:17:30;;;;;;;;;;;8.40;99.90;;;;;;4975979;28;20384;-74
2022/01/20 10:20:01;;;;;;;;;;;8.40;99.90;;;;;;4982187;28;19929;-75
2022/01/20 10:22:28;;;;;;;;;;;8.60;99.90;;;;;;4975482;28;19929;-74
2022/01/20 10:24:57;;;;;;;;;;;8.70;99.90;;;;;;4981116;28;19921;-74
2022/01/20 10:27:24;;;;;;;;;;;8.70;99.90;;;;;;4970842;28;19933;-76
2022/01/20 10:30:03;;;;;;;;;;;8.70;99.90;;;;;;4976504;28;20016;-76
2022/01/20 10:32:44;;;;;;;;;;;7.90;99.90;;;;;;4971801;28;19930;-76
2022/01/20 10:35:11;;;;;;;;;;;7.40;99.90;;;;;;4977380;28;19929;-76
2022/01/20 10:37:39;;;;;;;;;;;7.00;99.90;;;;;;4975912;28;20387;-77
2022/01/20 10:40:06;;;;;;;;;;;6.80;99.90;;;;;;4978586;28;19922;-77
2022/01/20 10:42:40;;;;;;;;;;;6.70;99.90;;;;;;4981810;28;19922;-76
2022/01/20 10:45:08;;;;;;;;;;;6.40;99.90;;;;;;4977291;28;19926;-76
2022/01/20 10:47:36;;;;;;;;;;;6.20;99.90;;;;;;4978612;28;19934;-76
2022/01/20 10:50:13;;;;;;;;;;;6.10;99.90;;;;;;4983149;28;19932;-76
2022/01/20 10:52:43;;;;;;;;;;;6.30;99.90;;;;;;4967188;28;20410;-76
2022/01/20 10:55:18;;;;;;;;;;;6.20;99.90;;;;;;4978093;28;20052;-76
2022/01/20 10:57:45;;;;;;;;;;;6.10;99.90;;;;;;4975281;28;19937;-76
2022/01/20 11:00:12;;;;;;;;;;;6.20;99.90;;;;;;4962236;28;19926;-76
2022/01/20 11:02:38;;;;;;;;;;;6.30;99.90;;;;;;4964528;28;20344;-77
2022/01/20 11:05:06;;;;;;;;;;;6.60;99.90;;;;;;4968269;28;19926;-76
2022/01/20 11:07:35;;;;;;;;;;;6.80;99.90;;;;;;4972412;28;19926;-76
2022/01/20 11:10:04;;;;;;;;;;;6.50;99.90;;;;;;4964573;28;20329;-75
2022/01/20 11:12:32;;;;;;;;;;;6.70;99.90;;;;;;4968319;28;19930;-77
2022/01/20 11:15:06;;;;;;;;;;;7.00;99.90;;;;;;4965598;28;19980;-76
2022/01/20 11:17:34;;;;;;;;;;;7.10;99.90;;;;;;4966170;28;19925;-77
2022/01/20 11:20:05;;;;;;;;;;;7.10;99.90;;;;;;4975297;28;19926;-77
2022/01/20 11:22:32;;;;;;;;;;;7.00;99.90;;;;;;4961065;28;19926;-76
2022/01/20 11:25:09;;;;;;;;;;;6.50;99.90;;;;;;4964876;28;19926;-76
2022/01/20 11:27:40;;;;;;;;;;;6.10;99.90;;;;;;4962292;28;19925;-76
2022/01/20 11:30:21;;;;;;;;;;;5.80;99.90;;;;;;4983485;28;19924;-76
2022/01/20 11:32:58;;;;;;;;;;;5.70;99.90;;;;;;4957358;28;19984;-79
2022/01/20 11:35:35;;;;;;;;;;;5.50;99.90;;;;;;4965539;28;19926;-78
2022/01/20 11:38:02;;;;;;;;;;;5.40;99.90;;;;;;4966013;28;20341;-78
2022/01/20 11:40:29;;;;;;;;;;;5.30;99.90;;;;;;4979793;28;20662;-78
2022/01/20 11:43:09;;;;;;;;;;;5.40;99.90;;;;;;4969540;28;19936;-77
2022/01/20 11:45:46;;;;;;;;;;;5.10;99.90;;;;;;4965835;28;19929;-78
2022/01/20 11:48:17;;;;;;;;;;;5.00;99.90;;;;;;4965793;28;19930;-77
2022/01/20 11:50:45;;;;;;;;;;;5.10;99.90;;;;;;4968275;28;19932;-78
2022/01/20 11:53:19;;;;;;;;;;;5.80;99.90;;;;;;4966953;28;19926;-76
2022/01/20 11:55:54;;;;;;;;;;;7.00;99.90;;;;;;4970874;28;20346;-77
2022/01/20 11:58:22;;;;;;;;;;;7.60;99.90;;;;;;4968383;28;19926;-77
2022/01/20 12:01:02;;;;;;;;;;;7.30;99.90;;;;;;4965035;28;20392;-78
2022/01/20 12:03:30;;;;;;;;;;;6.60;99.90;;;;;;4969112;28;19926;-78
2022/01/20 12:06:01;;;;;;;;;;;5.80;99.90;;;;;;4959201;28;19933;-76
2022/01/20 12:08:28;;;;;;;;;;;5.20;99.90;;;;;;4960904;28;20380;-77
2022/01/20 12:10:59;;;;;;;;;;;4.80;99.90;;;;;;4977502;28;19926;-77
2022/01/20 12:13:26;;;;;;;;;;;4.50;99.90;;;;;;4965590;28;19926;-77
2022/01/20 12:15:55;;;;;;;;;;;4.30;99.90;;;;;;4973122;28;20007;-77
2022/01/20 12:18:22;;;;;;;;;;;4.20;99.90;;;;;;4983750;28;19932;-77
2022/01/20 12:20:49;;;;;;;;;;;4.40;99.90;;;;;;4973465;28;19929;-77
2022/01/20 12:23:17;;;;;;;;;;;5.10;99.90;;;;;;4967987;28;19937;-77
2022/01/20 12:25:44;;;;;;;;;;;6.20;99.90;;;;;;4956212;28;20407;-76
2022/01/20 12:28:13;;;;;;;;;;;7.50;99.90;;;;;;5047072;28;20160;-76
2022/01/20 12:30:47;;;;;;;;;;;8.30;99.90;;;;;;4970058;28;20544;-76
2022/01/20 12:33:18;;;;;;;;;;;8.80;99.90;;;;;;4962584;28;19933;-76
2022/01/20 12:35:48;;;;;;;;;;;8.70;99.90;;;;;;4971270;28;19932;-77
2022/01/20 12:38:22;;;;;;;;;;;8.40;99.90;;;;;;4966155;28;22069;-78
2022/01/20 12:40:59;;;;;;;;;;;7.60;99.90;;;;;;4965540;28;20079;-78
2022/01/20 12:43:46;;;;;;;;;;;6.90;99.90;;;;;;4966373;28;20380;-77
2022/01/20 12:46:17;;;;;;;;;;;6.20;99.90;;;;;;4967228;28;19926;-76
2022/01/20 12:48:54;;;;;;;;;;;5.70;99.90;;;;;;4967205;28;19926;-77
2022/01/20 12:51:28;;;;;;;;;;;5.40;99.90;;;;;;4969803;28;20243;-76
2022/01/20 12:54:04;;;;;;;;;;;5.00;99.90;;;;;;4958488;28;19992;-77
2022/01/20 12:56:33;;;;;;;;;;;4.80;99.90;;;;;;4968476;28;19937;-74
2022/01/20 12:59:01;;;;;;;;;;;4.40;99.90;;;;;;4969924;28;19930;-75
2022/01/20 13:01:37;;;;;;;;;;;3.90;99.90;;;;;;4972933;28;20331;-75
2022/01/20 13:04:05;;;;;;;;;;;2.80;99.90;;;;;;4978145;28;19965;-75
2022/01/20 13:06:33;;;;;;;;;;;2.10;99.90;;;;;;4979880;28;20521;-75
2022/01/20 13:09:07;;;;;;;;;;;1.90;99.90;;;;;;5011542;28;19926;-75
2022/01/20 13:11:57;;;;;;;;;;;1.90;99.90;;;;;;4976509;28;19922;-75
2022/01/20 13:14:35;;;;;;;;;;;2.00;99.90;;;;;;4979616;28;19953;-75
2022/01/20 13:17:03;;;;;;;;;;;2.00;99.90;;;;;;4976166;28;19922;-74
2022/01/20 13:19:38;;;;;;;;;;;2.20;99.90;;;;;;4974290;28;19932;-74
2022/01/20 13:22:17;;;;;;;;;;;2.20;99.90;;;;;;4977903;28;19987;-76
2022/01/20 13:24:44;;;;;;;;;;;2.30;99.90;;;;;;4972565;28;19926;-76
2022/01/20 13:27:11;;;;;;;;;;;2.40;99.90;;;;;;4977464;28;19926;-76
2022/01/20 13:29:40;;;;;;;;;;;2.40;99.90;;;;;;4976372;28;20326;-76
2022/01/20 13:32:07;;;;;;;;;;;2.40;99.90;;;;;;4979427;28;20408;-76
2022/01/20 13:34:34;;;;;;;;;;;2.40;99.90;;;;;;4980103;28;19924;-76
2022/01/20 13:37:01;;;;;;;;;;;2.40;99.90;;;;;;4974328;28;19922;-76
2022/01/20 13:39:33;;;;;;;;;;;2.40;99.90;;;;;;4993429;28;19926;-76
2022/01/20 13:45:23;;;;;;;;;;;2.70;99.90;;;;;;4976297;28;19922;-77
2022/01/20 13:47:53;;;;;;;;;;;2.80;99.90;;;;;;4973999;28;19937;-75
2022/01/20 13:50:22;;;;;;;;;;;2.90;99.90;;;;;;4973997;28;20445;-75
2022/01/20 13:52:48;;;;;;;;;;;3.10;99.90;;;;;;4950184;28;19930;-75
2022/01/20 13:55:23;;;;;;;;;;;3.20;99.90;;;;;;4976535;28;19936;-75
2022/01/20 13:57:50;;;;;;;;;;;3.30;99.90;;;;;;4974516;28;19921;-75
2022/01/20 14:00:20;;;;;;;;;;;3.30;99.90;;;;;;4970681;28;19929;-75
2022/01/20 14:02:49;;;;;;;;;;;3.20;99.90;;;;;;4959649;28;19929;-75
2022/01/20 14:05:16;;;;;;;;;;;3.10;99.90;;;;;;4963621;28;19925;-75
2022/01/20 14:07:43;;;;;;;;;;;2.90;99.90;;;;;;4961553;28;20481;-75
2022/01/20 14:10:10;;;;;;;;;;;2.70;99.90;;;;;;4981712;28;19932;-75
2022/01/20 14:12:37;;;;;;;;;;;2.60;99.90;;;;;;4981504;28;19921;-75
2022/01/20 14:15:04;;;;;;;;;;;2.60;99.90;;;;;;4999280;28;19970;-75
2022/01/20 14:17:35;;;;;;;;;;;2.50;99.90;;;;;;4986807;28;19921;-74
2022/01/20 14:20:10;;;;;;;;;;;2.50;99.90;;;;;;4971620;28;19928;-75
2022/01/20 14:22:37;;;;;;;;;;;2.50;99.90;;;;;;4976276;28;19926;-77
2022/01/20 14:25:05;;;;;;;;;;;2.60;99.90;;;;;;4979237;28;19922;-76
2022/01/20 14:27:32;;;;;;;;;;;2.50;99.90;;;;;;4982358;28;20212;-75
2022/01/20 14:30:00;;;;;;;;;;;2.50;99.90;;;;;;4986384;28;19922;-75
2022/01/20 14:32:27;;;;;;;;;;;2.50;99.90;;;;;;4981225;28;19921;-75
2022/01/20 14:34:54;;;;;;;;;;;2.50;99.90;;;;;;4983680;28;20402;-76
2022/01/20 14:37:20;;;;;;;;;;;2.50;99.90;;;;;;4941510;28;19997;-75
2022/01/20 14:39:47;;;;;;;;;;;2.40;99.90;;;;;;4977740;28;19928;-75
2022/01/20 14:42:14;;;;;;;;;;;2.50;99.90;;;;;;4985685;28;19928;-76
2022/01/20 14:44:42;;;;;;;;;;;2.60;99.90;;;;;;4986025;28;20289;-75
2022/01/20 14:47:12;;;;;;;;;;;2.70;99.90;;;;;;4977722;28;19926;-76
2022/01/20 14:49:40;;;;;;;;;;;2.80;99.90;;;;;;4975753;28;20295;-76
2022/01/20 14:52:07;;;;;;;;;;;2.90;99.90;;;;;;4984748;28;19928;-76
2022/01/20 14:54:34;;;;;;;;;;;2.90;99.90;;;;;;4948291;28;19936;-76
2022/01/20 14:57:01;;;;;;;;;;;3.00;99.90;;;;;;4984826;28;19921;-76
2022/01/20 14:59:30;;;;;;;;;;;3.00;99.90;;;;;;4979610;28;19922;-76
2022/01/20 15:01:56;;;;;;;;;;;3.20;99.90;;;;;;4981854;28;19936;-75
2022/01/20 15:04:24;;;;;;;;;;;3.30;99.90;;;;;;4982849;28;20100;-76
2022/01/20 15:06:50;;;;;;;;;;;3.30;99.90;;;;;;4979331;28;19944;-76
2022/01/20 15:09:17;;;;;;;;;;;3.20;99.90;;;;;;4979129;28;20012;-76
2022/01/20 15:11:44;;;;;;;;;;;3.10;99.90;;;;;;4963733;28;19928;-76
2022/01/20 15:14:11;;;;;;;;;;;3.10;99.90;;;;;;4984959;28;19975;-76
2022/01/20 15:16:38;;;;;;;;;;;3.10;99.90;;;;;;4972902;28;19930;-76
2022/01/20 15:19:07;;;;;;;;;;;3.30;99.90;;;;;;4978611;28;19921;-75
2022/01/20 15:21:34;;;;;;;;;;;3.40;99.90;;;;;;4974051;28;20329;-75
2022/01/20 15:24:05;;;;;;;;;;;3.30;99.90;;;;;;4979167;28;19992;-76
2022/01/20 15:26:32;;;;;;;;;;;3.30;99.90;;;;;;4986043;28;19922;-76
2022/01/20 15:28:59;;;;;;;;;;;3.20;99.90;;;;;;4979419;28;19961;-76
2022/01/20 15:31:28;;;;;;;;;;;3.20;99.90;;;;;;4981392;28;19926;-76
2022/01/20 15:33:55;;;;;;;;;;;3.20;99.90;;;;;;4969340;28;20406;-76
2022/01/20 15:36:21;;;;;;;;;;;3.00;99.90;;;;;;4978996;28;20133;-76
2022/01/20 15:38:48;;;;;;;;;;;3.00;99.90;;;;;;4973362;28;19925;-74
2022/01/20 15:41:15;;;;;;;;;;;3.00;99.90;;;;;;4988091;28;19929;-74
2022/01/20 15:43:41;;;;;;;;;;;2.80;99.90;;;;;;4977143;28;19933;-74
2022/01/20 15:46:08;;;;;;;;;;;2.80;99.90;;;;;;4978388;28;19928;-76
2022/01/20 15:48:37;;;;;;;;;;;2.80;99.90;;;;;;4970107;28;20529;-76
2022/01/20 15:51:04;;;;;;;;;;;2.80;99.90;;;;;;4977764;28;20533;-76
2022/01/20 15:53:31;;;;;;;;;;;2.70;99.90;;;;;;4977259;28;20236;-76